Hallam, Nebraska
Current Conditions -  °F | °C
As of 7:35 AM on Thursday 30 Oct 2014 (Local Time) from KBIE Reporting Station
Clear Clear  
Wind Chill:   Ceiling: Unl
Heat Index:   Visibility: 10mi
Dew Point:   Wind: 3mph
Humidity: 94%   Direction: 300°WNW
Pressure: 30.04"   Gusts: NA
Location:  40.54°N, 96.79°W
Report Text: KBIE 301235Z AUTO 30003KT 10SM CLR 01/01 A3004 RMK AO2 T00140006
Loading
Personal Weather Stations






























Interactive Weather Map
Tropical Storm Tracking
New forecast layout! Learn more

10-Day Weather Forecast

Advertisements
Track Severe Weather on mobile